<?xml version="1.0" encoding="UTF-8" standalone="no" ?>
<gpx xmlns="http://www.topografix.com/GPX/1/1" xmlns:xsi="http://www.w3.org/2001/XMLSchema-instance" xsi:schemaLocation="http://www.topografix.com/GPX/1/1 http://www.topografix.com/GPX/1/1/gpx.xsd" version="1.1" creator="VisuGPX - https://www.visugpx.com">
  <metadata>
    <name>Tour de France 2019</name>
    <desc><![CDATA[4272km en 2 mois en tandem avec notre petit chien dans le panier avant]]></desc>
  </metadata>
  <trk>
    <name><![CDATA[Tracé 20191026-093505]]></name>
    <trkseg>
      <trkpt lat="43.81577" lon="4.1242">
        <ele>94.644</ele>
        <time>2019-10-26T07:47:35Z</time>
      </trkpt>
      <trkpt lat="43.81541" lon="4.12337">
        <ele>95.548</ele>
        <time>2019-10-26T07:48:14Z</time>
      </trkpt>
      <trkpt lat="43.81473" lon="4.12264">
        <ele>99.644</ele>
        <time>2019-10-26T07:48:44Z</time>
      </trkpt>
      <trkpt lat="43.81438" lon="4.12198">
        <ele>101.612</ele>
        <time>2019-10-26T07:52:06Z</time>
      </trkpt>
      <trkpt lat="43.81501" lon="4.12325">
        <ele>102.719</ele>
        <time>2019-10-26T07:52:45Z</time>
      </trkpt>
      <trkpt lat="43.81545" lon="4.12265">
        <ele>97.559</ele>
        <time>2019-10-26T07:53:18Z</time>
      </trkpt>
      <trkpt lat="43.81585" lon="4.12233">
        <ele>105.27</ele>
        <time>2019-10-26T07:53:51Z</time>
      </trkpt>
      <trkpt lat="43.81626" lon="4.1217">
        <ele>110.001</ele>
        <time>2019-10-26T07:54:21Z</time>
      </trkpt>
      <trkpt lat="43.81667" lon="4.1199">
        <ele>103.575</ele>
        <time>2019-10-26T07:54:54Z</time>
      </trkpt>
      <trkpt lat="43.81685" lon="4.11854">
        <ele>84.55</ele>
        <time>2019-10-26T07:55:24Z</time>
      </trkpt>
      <trkpt lat="43.81702" lon="4.11725">
        <ele>79.022</ele>
        <time>2019-10-26T07:55:57Z</time>
      </trkpt>
      <trkpt lat="43.81718" lon="4.11628">
        <ele>73.653</ele>
        <time>2019-10-26T07:56:27Z</time>
      </trkpt>
      <trkpt lat="43.81781" lon="4.11512">
        <ele>73.91</ele>
        <time>2019-10-26T07:57:00Z</time>
      </trkpt>
      <trkpt lat="43.81849" lon="4.114">
        <ele>65.187</ele>
        <time>2019-10-26T07:57:30Z</time>
      </trkpt>
      <trkpt lat="43.81938" lon="4.11271">
        <ele>50.216</ele>
        <time>2019-10-26T07:58:03Z</time>
      </trkpt>
      <trkpt lat="43.81989" lon="4.11116">
        <ele>46.257</ele>
        <time>2019-10-26T07:58:33Z</time>
      </trkpt>
      <trkpt lat="43.82016" lon="4.11146">
        <ele>51.298</ele>
        <time>2019-10-26T08:01:18Z</time>
      </trkpt>
      <trkpt lat="43.82034" lon="4.11193">
        <ele>51.095</ele>
        <time>2019-10-26T08:04:27Z</time>
      </trkpt>
      <trkpt lat="43.82065" lon="4.11267">
        <ele>51.853</ele>
        <time>2019-10-26T08:05:15Z</time>
      </trkpt>
      <trkpt lat="43.82132" lon="4.11306">
        <ele>55.159</ele>
        <time>2019-10-26T08:05:48Z</time>
      </trkpt>
      <trkpt lat="43.82193" lon="4.11279">
        <ele>56.969</ele>
        <time>2019-10-26T08:06:18Z</time>
      </trkpt>
      <trkpt lat="43.82265" lon="4.1123">
        <ele>60.365</ele>
        <time>2019-10-26T08:06:51Z</time>
      </trkpt>
      <trkpt lat="43.82331" lon="4.1118">
        <ele>58.691</ele>
        <time>2019-10-26T08:07:21Z</time>
      </trkpt>
      <trkpt lat="43.82386" lon="4.11193">
        <ele>58.629</ele>
        <time>2019-10-26T08:10:48Z</time>
      </trkpt>
      <trkpt lat="43.82442" lon="4.11297">
        <ele>61.651</ele>
        <time>2019-10-26T08:11:18Z</time>
      </trkpt>
      <trkpt lat="43.82507" lon="4.11413">
        <ele>63.088</ele>
        <time>2019-10-26T08:11:51Z</time>
      </trkpt>
      <trkpt lat="43.82568" lon="4.11525">
        <ele>63.931</ele>
        <time>2019-10-26T08:12:21Z</time>
      </trkpt>
      <trkpt lat="43.82646" lon="4.11642">
        <ele>66.241</ele>
        <time>2019-10-26T08:12:54Z</time>
      </trkpt>
      <trkpt lat="43.82713" lon="4.1174">
        <ele>65.535</ele>
        <time>2019-10-26T08:13:24Z</time>
      </trkpt>
      <trkpt lat="43.82724" lon="4.116">
        <ele>65.679</ele>
        <time>2019-10-26T08:13:54Z</time>
      </trkpt>
      <trkpt lat="43.82746" lon="4.11405">
        <ele>65.583</ele>
        <time>2019-10-26T08:14:27Z</time>
      </trkpt>
      <trkpt lat="43.82709" lon="4.11132">
        <ele>65.739</ele>
        <time>2019-10-26T08:14:57Z</time>
      </trkpt>
      <trkpt lat="43.82733" lon="4.10883">
        <ele>63.589</ele>
        <time>2019-10-26T08:15:30Z</time>
      </trkpt>
      <trkpt lat="43.82776" lon="4.10707">
        <ele>59.621</ele>
        <time>2019-10-26T08:16:00Z</time>
      </trkpt>
      <trkpt lat="43.82804" lon="4.10519">
        <ele>59.44</ele>
        <time>2019-10-26T08:16:33Z</time>
      </trkpt>
      <trkpt lat="43.82769" lon="4.10329">
        <ele>63.349</ele>
        <time>2019-10-26T08:17:03Z</time>
      </trkpt>
      <trkpt lat="43.82748" lon="4.10134">
        <ele>65.402</ele>
        <time>2019-10-26T08:17:36Z</time>
      </trkpt>
      <trkpt lat="43.82802" lon="4.09976">
        <ele>60.352</ele>
        <time>2019-10-26T08:18:06Z</time>
      </trkpt>
      <trkpt lat="43.82805" lon="4.09793">
        <ele>66.485</ele>
        <time>2019-10-26T08:18:39Z</time>
      </trkpt>
      <trkpt lat="43.82835" lon="4.09633">
        <ele>61.031</ele>
        <time>2019-10-26T08:19:09Z</time>
      </trkpt>
      <trkpt lat="43.82875" lon="4.09486">
        <ele>62.711</ele>
        <time>2019-10-26T08:19:39Z</time>
      </trkpt>
      <trkpt lat="43.82964" lon="4.0929">
        <ele>62.715</ele>
        <time>2019-10-26T08:20:12Z</time>
      </trkpt>
      <trkpt lat="43.83073" lon="4.09071">
        <ele>60.183</ele>
        <time>2019-10-26T08:20:42Z</time>
      </trkpt>
      <trkpt lat="43.83235" lon="4.08888">
        <ele>54.232</ele>
        <time>2019-10-26T08:21:15Z</time>
      </trkpt>
      <trkpt lat="43.83387" lon="4.0871">
        <ele>47.929</ele>
        <time>2019-10-26T08:21:45Z</time>
      </trkpt>
      <trkpt lat="43.83515" lon="4.08522">
        <ele>42.437</ele>
        <time>2019-10-26T08:22:18Z</time>
      </trkpt>
      <trkpt lat="43.83619" lon="4.08416">
        <ele>50.781</ele>
        <time>2019-10-26T08:22:48Z</time>
      </trkpt>
      <trkpt lat="43.8373" lon="4.08315">
        <ele>51.455</ele>
        <time>2019-10-26T08:23:21Z</time>
      </trkpt>
      <trkpt lat="43.83822" lon="4.08194">
        <ele>55.176</ele>
        <time>2019-10-26T08:23:51Z</time>
      </trkpt>
      <trkpt lat="43.83928" lon="4.08087">
        <ele>55.729</ele>
        <time>2019-10-26T08:24:24Z</time>
      </trkpt>
      <trkpt lat="43.83945" lon="4.07913">
        <ele>54.297</ele>
        <time>2019-10-26T08:24:54Z</time>
      </trkpt>
      <trkpt lat="43.83887" lon="4.07662">
        <ele>50.641</ele>
        <time>2019-10-26T08:25:27Z</time>
      </trkpt>
      <trkpt lat="43.83836" lon="4.07452">
        <ele>54.731</ele>
        <time>2019-10-26T08:25:57Z</time>
      </trkpt>
      <trkpt lat="43.83786" lon="4.07188">
        <ele>47.04</ele>
        <time>2019-10-26T08:26:27Z</time>
      </trkpt>
      <trkpt lat="43.83804" lon="4.06869">
        <ele>43.491</ele>
        <time>2019-10-26T08:27:00Z</time>
      </trkpt>
      <trkpt lat="43.83761" lon="4.06603">
        <ele>37.98</ele>
        <time>2019-10-26T08:27:30Z</time>
      </trkpt>
      <trkpt lat="43.837" lon="4.06435">
        <ele>35.294</ele>
        <time>2019-10-26T08:28:03Z</time>
      </trkpt>
      <trkpt lat="43.83593" lon="4.06494">
        <ele>31.985</ele>
        <time>2019-10-26T08:28:33Z</time>
      </trkpt>
      <trkpt lat="43.83569" lon="4.06353">
        <ele>39.826</ele>
        <time>2019-10-26T08:29:06Z</time>
      </trkpt>
      <trkpt lat="43.83634" lon="4.0632">
        <ele>50.824</ele>
        <time>2019-10-26T08:29:36Z</time>
      </trkpt>
      <trkpt lat="43.83712" lon="4.06328">
        <ele>61.822</ele>
        <time>2019-10-26T08:30:09Z</time>
      </trkpt>
      <trkpt lat="43.83789" lon="4.06333">
        <ele>70.964</ele>
        <time>2019-10-26T08:30:39Z</time>
      </trkpt>
      <trkpt lat="43.83872" lon="4.06321">
        <ele>64.698</ele>
        <time>2019-10-26T08:31:12Z</time>
      </trkpt>
      <trkpt lat="43.8393" lon="4.06217">
        <ele>59.682</ele>
        <time>2019-10-26T08:31:42Z</time>
      </trkpt>
      <trkpt lat="43.83976" lon="4.06094">
        <ele>55.492</ele>
        <time>2019-10-26T08:32:12Z</time>
      </trkpt>
      <trkpt lat="43.84047" lon="4.06003">
        <ele>56.494</ele>
        <time>2019-10-26T08:32:45Z</time>
      </trkpt>
      <trkpt lat="43.84173" lon="4.05799">
        <ele>54.413</ele>
        <time>2019-10-26T08:33:15Z</time>
      </trkpt>
      <trkpt lat="43.84375" lon="4.05657">
        <ele>48.66</ele>
        <time>2019-10-26T08:33:48Z</time>
      </trkpt>
      <trkpt lat="43.84473" lon="4.05582">
        <ele>48.121</ele>
        <time>2019-10-26T08:34:18Z</time>
      </trkpt>
      <trkpt lat="43.84556" lon="4.05494">
        <ele>54.47</ele>
        <time>2019-10-26T08:34:51Z</time>
      </trkpt>
      <trkpt lat="43.84612" lon="4.05408">
        <ele>57.328</ele>
        <time>2019-10-26T08:35:21Z</time>
      </trkpt>
      <trkpt lat="43.84676" lon="4.053">
        <ele>58.429</ele>
        <time>2019-10-26T08:35:54Z</time>
      </trkpt>
      <trkpt lat="43.8475" lon="4.05227">
        <ele>61.542</ele>
        <time>2019-10-26T08:36:24Z</time>
      </trkpt>
      <trkpt lat="43.84817" lon="4.05135">
        <ele>65.719</ele>
        <time>2019-10-26T08:36:57Z</time>
      </trkpt>
      <trkpt lat="43.84861" lon="4.05041">
        <ele>68.9</ele>
        <time>2019-10-26T08:37:27Z</time>
      </trkpt>
      <trkpt lat="43.84877" lon="4.04973">
        <ele>73.029</ele>
        <time>2019-10-26T08:42:54Z</time>
      </trkpt>
      <trkpt lat="43.8488" lon="4.04813">
        <ele>67.343</ele>
        <time>2019-10-26T08:43:27Z</time>
      </trkpt>
      <trkpt lat="43.85" lon="4.04738">
        <ele>60.996</ele>
        <time>2019-10-26T08:43:57Z</time>
      </trkpt>
      <trkpt lat="43.85173" lon="4.04634">
        <ele>58.58</ele>
        <time>2019-10-26T08:44:30Z</time>
      </trkpt>
      <trkpt lat="43.8542" lon="4.04622">
        <ele>57.147</ele>
        <time>2019-10-26T08:45:00Z</time>
      </trkpt>
      <trkpt lat="43.85616" lon="4.04508">
        <ele>50.233</ele>
        <time>2019-10-26T08:45:33Z</time>
      </trkpt>
      <trkpt lat="43.85745" lon="4.0437">
        <ele>44.97</ele>
        <time>2019-10-26T08:46:03Z</time>
      </trkpt>
      <trkpt lat="43.85871" lon="4.04232">
        <ele>45.381</ele>
        <time>2019-10-26T08:46:36Z</time>
      </trkpt>
      <trkpt lat="43.86029" lon="4.04154">
        <ele>43.646</ele>
        <time>2019-10-26T08:47:06Z</time>
      </trkpt>
      <trkpt lat="43.8619" lon="4.041">
        <ele>43.411</ele>
        <time>2019-10-26T08:47:39Z</time>
      </trkpt>
      <trkpt lat="43.86315" lon="4.04037">
        <ele>45.268</ele>
        <time>2019-10-26T08:48:09Z</time>
      </trkpt>
      <trkpt lat="43.86451" lon="4.04003">
        <ele>47.261</ele>
        <time>2019-10-26T08:48:39Z</time>
      </trkpt>
      <trkpt lat="43.86608" lon="4.04009">
        <ele>50.111</ele>
        <time>2019-10-26T08:49:12Z</time>
      </trkpt>
      <trkpt lat="43.86749" lon="4.04017">
        <ele>51.462</ele>
        <time>2019-10-26T08:49:42Z</time>
      </trkpt>
      <trkpt lat="43.86894" lon="4.04073">
        <ele>49.024</ele>
        <time>2019-10-26T08:50:15Z</time>
      </trkpt>
      <trkpt lat="43.87022" lon="4.04062">
        <ele>48.723</ele>
        <time>2019-10-26T08:50:45Z</time>
      </trkpt>
      <trkpt lat="43.87136" lon="4.04033">
        <ele>51.882</ele>
        <time>2019-10-26T08:51:18Z</time>
      </trkpt>
      <trkpt lat="43.87233" lon="4.04119">
        <ele>59.581</ele>
        <time>2019-10-26T08:51:48Z</time>
      </trkpt>
      <trkpt lat="43.8732" lon="4.04178">
        <ele>69.055</ele>
        <time>2019-10-26T08:52:21Z</time>
      </trkpt>
      <trkpt lat="43.87402" lon="4.04226">
        <ele>76.844</ele>
        <time>2019-10-26T08:52:51Z</time>
      </trkpt>
      <trkpt lat="43.8753" lon="4.04343">
        <ele>67.239</ele>
        <time>2019-10-26T08:53:24Z</time>
      </trkpt>
      <trkpt lat="43.87657" lon="4.04423">
        <ele>61.818</ele>
        <time>2019-10-26T08:53:54Z</time>
      </trkpt>
      <trkpt lat="43.87764" lon="4.04549">
        <ele>63.498</ele>
        <time>2019-10-26T08:54:24Z</time>
      </trkpt>
      <trkpt lat="43.87983" lon="4.04651">
        <ele>56.936</ele>
        <time>2019-10-26T08:54:57Z</time>
      </trkpt>
      <trkpt lat="43.88174" lon="4.04693">
        <ele>53.684</ele>
        <time>2019-10-26T08:55:27Z</time>
      </trkpt>
      <trkpt lat="43.88311" lon="4.04705">
        <ele>50.283</ele>
        <time>2019-10-26T08:56:00Z</time>
      </trkpt>
      <trkpt lat="43.88403" lon="4.04723">
        <ele>57.121</ele>
        <time>2019-10-26T08:56:30Z</time>
      </trkpt>
      <trkpt lat="43.88506" lon="4.04789">
        <ele>64.256</ele>
        <time>2019-10-26T08:57:03Z</time>
      </trkpt>
      <trkpt lat="43.88553" lon="4.04878">
        <ele>66.047</ele>
        <time>2019-10-26T08:57:33Z</time>
      </trkpt>
      <trkpt lat="43.88555" lon="4.04987">
        <ele>67.204</ele>
        <time>2019-10-26T09:00:15Z</time>
      </trkpt>
      <trkpt lat="43.88554" lon="4.04855">
        <ele>65.448</ele>
        <time>2019-10-26T09:00:45Z</time>
      </trkpt>
      <trkpt lat="43.88627" lon="4.04809">
        <ele>67.474</ele>
        <time>2019-10-26T09:01:18Z</time>
      </trkpt>
      <trkpt lat="43.8871" lon="4.04843">
        <ele>68.316</ele>
        <time>2019-10-26T09:01:48Z</time>
      </trkpt>
      <trkpt lat="43.88838" lon="4.04853">
        <ele>70.675</ele>
        <time>2019-10-26T09:02:21Z</time>
      </trkpt>
      <trkpt lat="43.88955" lon="4.04871">
        <ele>71.908</ele>
        <time>2019-10-26T09:02:51Z</time>
      </trkpt>
      <trkpt lat="43.89063" lon="4.04873">
        <ele>76.712</ele>
        <time>2019-10-26T09:03:21Z</time>
      </trkpt>
      <trkpt lat="43.8917" lon="4.04869">
        <ele>79.424</ele>
        <time>2019-10-26T09:03:54Z</time>
      </trkpt>
      <trkpt lat="43.89271" lon="4.04846">
        <ele>80.909</ele>
        <time>2019-10-26T09:04:24Z</time>
      </trkpt>
      <trkpt lat="43.89386" lon="4.04803">
        <ele>81.596</ele>
        <time>2019-10-26T09:04:57Z</time>
      </trkpt>
      <trkpt lat="43.89491" lon="4.04792">
        <ele>84.933</ele>
        <time>2019-10-26T09:05:27Z</time>
      </trkpt>
      <trkpt lat="43.896" lon="4.04776">
        <ele>86.002</ele>
        <time>2019-10-26T09:06:00Z</time>
      </trkpt>
      <trkpt lat="43.8969" lon="4.04739">
        <ele>87.202</ele>
        <time>2019-10-26T09:06:30Z</time>
      </trkpt>
      <trkpt lat="43.8979" lon="4.04702">
        <ele>89.504</ele>
        <time>2019-10-26T09:07:03Z</time>
      </trkpt>
      <trkpt lat="43.89884" lon="4.04675">
        <ele>92.859</ele>
        <time>2019-10-26T09:07:33Z</time>
      </trkpt>
      <trkpt lat="43.89975" lon="4.04693">
        <ele>98.525</ele>
        <time>2019-10-26T09:08:06Z</time>
      </trkpt>
      <trkpt lat="43.90055" lon="4.04647">
        <ele>100.254</ele>
        <time>2019-10-26T09:08:36Z</time>
      </trkpt>
      <trkpt lat="43.90124" lon="4.04667">
        <ele>104.797</ele>
        <time>2019-10-26T09:09:06Z</time>
      </trkpt>
      <trkpt lat="43.90194" lon="4.04665">
        <ele>109.078</ele>
        <time>2019-10-26T09:09:39Z</time>
      </trkpt>
      <trkpt lat="43.90252" lon="4.04597">
        <ele>113.885</ele>
        <time>2019-10-26T09:10:09Z</time>
      </trkpt>
      <trkpt lat="43.90453" lon="4.04573">
        <ele>103.761</ele>
        <time>2019-10-26T09:10:42Z</time>
      </trkpt>
      <trkpt lat="43.90697" lon="4.0459">
        <ele>92.775</ele>
        <time>2019-10-26T09:11:12Z</time>
      </trkpt>
      <trkpt lat="43.90964" lon="4.04665">
        <ele>81.355</ele>
        <time>2019-10-26T09:11:45Z</time>
      </trkpt>
      <trkpt lat="43.91062" lon="4.04706">
        <ele>83.915</ele>
        <time>2019-10-26T09:12:15Z</time>
      </trkpt>
      <trkpt lat="43.91131" lon="4.04724">
        <ele>91.759</ele>
        <time>2019-10-26T09:12:48Z</time>
      </trkpt>
      <trkpt lat="43.91194" lon="4.04742">
        <ele>94.281</ele>
        <time>2019-10-26T09:13:18Z</time>
      </trkpt>
      <trkpt lat="43.91244" lon="4.04797">
        <ele>100.936</ele>
        <time>2019-10-26T09:13:51Z</time>
      </trkpt>
      <trkpt lat="43.91283" lon="4.04864">
        <ele>103.825</ele>
        <time>2019-10-26T09:14:21Z</time>
      </trkpt>
      <trkpt lat="43.9141" lon="4.04864">
        <ele>102.754</ele>
        <time>2019-10-26T09:14:51Z</time>
      </trkpt>
      <trkpt lat="43.91552" lon="4.04924">
        <ele>97.587</ele>
        <time>2019-10-26T09:15:24Z</time>
      </trkpt>
      <trkpt lat="43.91667" lon="4.05001">
        <ele>98.395</ele>
        <time>2019-10-26T09:15:54Z</time>
      </trkpt>
      <trkpt lat="43.9182" lon="4.04686">
        <ele>91.225</ele>
        <time>2019-10-26T09:16:27Z</time>
      </trkpt>
      <trkpt lat="43.9188" lon="4.04554">
        <ele>94.243</ele>
        <time>2019-10-26T09:16:57Z</time>
      </trkpt>
      <trkpt lat="43.91958" lon="4.04524">
        <ele>97.218</ele>
        <time>2019-10-26T09:17:30Z</time>
      </trkpt>
      <trkpt lat="43.92048" lon="4.04555">
        <ele>96.449</ele>
        <time>2019-10-26T09:18:00Z</time>
      </trkpt>
      <trkpt lat="43.92182" lon="4.0452">
        <ele>97.605</ele>
        <time>2019-10-26T09:18:33Z</time>
      </trkpt>
      <trkpt lat="43.92262" lon="4.04526">
        <ele>100.541</ele>
        <time>2019-10-26T09:19:03Z</time>
      </trkpt>
      <trkpt lat="43.92345" lon="4.04535">
        <ele>106.566</ele>
        <time>2019-10-26T09:19:36Z</time>
      </trkpt>
      <trkpt lat="43.92424" lon="4.04524">
        <ele>106.965</ele>
        <time>2019-10-26T09:20:06Z</time>
      </trkpt>
      <trkpt lat="43.925" lon="4.0452">
        <ele>109.03</ele>
        <time>2019-10-26T09:20:36Z</time>
      </trkpt>
      <trkpt lat="43.92585" lon="4.04546">
        <ele>110.223</ele>
        <time>2019-10-26T09:21:09Z</time>
      </trkpt>
      <trkpt lat="43.92656" lon="4.0457">
        <ele>113.72</ele>
        <time>2019-10-26T09:21:39Z</time>
      </trkpt>
      <trkpt lat="43.92733" lon="4.04575">
        <ele>118.258</ele>
        <time>2019-10-26T09:22:12Z</time>
      </trkpt>
      <trkpt lat="43.92822" lon="4.04593">
        <ele>122.507</ele>
        <time>2019-10-26T09:22:42Z</time>
      </trkpt>
      <trkpt lat="43.92934" lon="4.04594">
        <ele>123.86</ele>
        <time>2019-10-26T09:23:15Z</time>
      </trkpt>
      <trkpt lat="43.93006" lon="4.04638">
        <ele>125.743</ele>
        <time>2019-10-26T09:23:45Z</time>
      </trkpt>
      <trkpt lat="43.93067" lon="4.04694">
        <ele>131.275</ele>
        <time>2019-10-26T09:24:18Z</time>
      </trkpt>
      <trkpt lat="43.93116" lon="4.04743">
        <ele>136.876</ele>
        <time>2019-10-26T09:24:48Z</time>
      </trkpt>
      <trkpt lat="43.93168" lon="4.0479">
        <ele>146.217</ele>
        <time>2019-10-26T09:25:21Z</time>
      </trkpt>
      <trkpt lat="43.9323" lon="4.04833">
        <ele>145.414</ele>
        <time>2019-10-26T09:25:51Z</time>
      </trkpt>
      <trkpt lat="43.93293" lon="4.04854">
        <ele>150.874</ele>
        <time>2019-10-26T09:26:24Z</time>
      </trkpt>
      <trkpt lat="43.93356" lon="4.0488">
        <ele>150.078</ele>
        <time>2019-10-26T09:26:54Z</time>
      </trkpt>
      <trkpt lat="43.93424" lon="4.04908">
        <ele>154.405</ele>
        <time>2019-10-26T09:27:24Z</time>
      </trkpt>
      <trkpt lat="43.93614" lon="4.04928">
        <ele>150.178</ele>
        <time>2019-10-26T09:27:57Z</time>
      </trkpt>
      <trkpt lat="43.93859" lon="4.04916">
        <ele>139.894</ele>
        <time>2019-10-26T09:28:27Z</time>
      </trkpt>
      <trkpt lat="43.94103" lon="4.04949">
        <ele>126.735</ele>
        <time>2019-10-26T09:29:00Z</time>
      </trkpt>
      <trkpt lat="43.94345" lon="4.04905">
        <ele>119.542</ele>
        <time>2019-10-26T09:29:30Z</time>
      </trkpt>
      <trkpt lat="43.94488" lon="4.04907">
        <ele>122.162</ele>
        <time>2019-10-26T09:30:03Z</time>
      </trkpt>
      <trkpt lat="43.94687" lon="4.04933">
        <ele>117.355</ele>
        <time>2019-10-26T09:30:33Z</time>
      </trkpt>
      <trkpt lat="43.94936" lon="4.04979">
        <ele>107.405</ele>
        <time>2019-10-26T09:31:06Z</time>
      </trkpt>
      <trkpt lat="43.95112" lon="4.04968">
        <ele>105.854</ele>
        <time>2019-10-26T09:31:36Z</time>
      </trkpt>
      <trkpt lat="43.9529" lon="4.04973">
        <ele>103.758</ele>
        <time>2019-10-26T09:32:09Z</time>
      </trkpt>
      <trkpt lat="43.95514" lon="4.05005">
        <ele>98.355</ele>
        <time>2019-10-26T09:32:39Z</time>
      </trkpt>
      <trkpt lat="43.95672" lon="4.05027">
        <ele>97.977</ele>
        <time>2019-10-26T09:33:09Z</time>
      </trkpt>
      <trkpt lat="43.95823" lon="4.04976">
        <ele>97.814</ele>
        <time>2019-10-26T09:33:42Z</time>
      </trkpt>
      <trkpt lat="43.95968" lon="4.05041">
        <ele>96.714</ele>
        <time>2019-10-26T09:34:12Z</time>
      </trkpt>
      <trkpt lat="43.96158" lon="4.04939">
        <ele>92.087</ele>
        <time>2019-10-26T09:34:45Z</time>
      </trkpt>
      <trkpt lat="43.9626" lon="4.04898">
        <ele>96.539</ele>
        <time>2019-10-26T09:35:15Z</time>
      </trkpt>
      <trkpt lat="43.96489" lon="4.04978">
        <ele>90.619</ele>
        <time>2019-10-26T09:35:48Z</time>
      </trkpt>
      <trkpt lat="43.96602" lon="4.05023">
        <ele>93.211</ele>
        <time>2019-10-26T09:36:18Z</time>
      </trkpt>
      <trkpt lat="43.96738" lon="4.05036">
        <ele>91.728</ele>
        <time>2019-10-26T09:36:51Z</time>
      </trkpt>
      <trkpt lat="43.96922" lon="4.04986">
        <ele>85.083</ele>
        <time>2019-10-26T09:37:21Z</time>
      </trkpt>
      <trkpt lat="43.97038" lon="4.05105">
        <ele>88.294</ele>
        <time>2019-10-26T09:37:54Z</time>
      </trkpt>
      <trkpt lat="43.97175" lon="4.05133">
        <ele>88.425</ele>
        <time>2019-10-26T09:38:24Z</time>
      </trkpt>
      <trkpt lat="43.97289" lon="4.05151">
        <ele>90.589</ele>
        <time>2019-10-26T09:38:54Z</time>
      </trkpt>
      <trkpt lat="43.97414" lon="4.05192">
        <ele>92.054</ele>
        <time>2019-10-26T09:39:27Z</time>
      </trkpt>
      <trkpt lat="43.97532" lon="4.05208">
        <ele>94.046</ele>
        <time>2019-10-26T09:39:57Z</time>
      </trkpt>
      <trkpt lat="43.97654" lon="4.05199">
        <ele>96.092</ele>
        <time>2019-10-26T09:40:30Z</time>
      </trkpt>
      <trkpt lat="43.9777" lon="4.05194">
        <ele>98.555</ele>
        <time>2019-10-26T09:41:00Z</time>
      </trkpt>
      <trkpt lat="43.97887" lon="4.05223">
        <ele>101.616</ele>
        <time>2019-10-26T09:41:33Z</time>
      </trkpt>
      <trkpt lat="43.97986" lon="4.05241">
        <ele>106.621</ele>
        <time>2019-10-26T09:42:03Z</time>
      </trkpt>
      <trkpt lat="43.98096" lon="4.05246">
        <ele>110.722</ele>
        <time>2019-10-26T09:42:36Z</time>
      </trkpt>
      <trkpt lat="43.98181" lon="4.05167">
        <ele>115.28</ele>
        <time>2019-10-26T09:43:06Z</time>
      </trkpt>
      <trkpt lat="43.98276" lon="4.05101">
        <ele>117.71</ele>
        <time>2019-10-26T09:43:39Z</time>
      </trkpt>
      <trkpt lat="43.98383" lon="4.05031">
        <ele>116.938</ele>
        <time>2019-10-26T09:44:09Z</time>
      </trkpt>
      <trkpt lat="43.98503" lon="4.05043">
        <ele>118.038</ele>
        <time>2019-10-26T09:44:39Z</time>
      </trkpt>
      <trkpt lat="43.98632" lon="4.05062">
        <ele>114.833</ele>
        <time>2019-10-26T09:45:12Z</time>
      </trkpt>
      <trkpt lat="43.98747" lon="4.05074">
        <ele>116.577</ele>
        <time>2019-10-26T09:45:42Z</time>
      </trkpt>
      <trkpt lat="43.98916" lon="4.05096">
        <ele>115.367</ele>
        <time>2019-10-26T09:46:15Z</time>
      </trkpt>
      <trkpt lat="43.99095" lon="4.05081">
        <ele>111.901</ele>
        <time>2019-10-26T09:46:45Z</time>
      </trkpt>
      <trkpt lat="43.99231" lon="4.05166">
        <ele>110.591</ele>
        <time>2019-10-26T09:47:18Z</time>
      </trkpt>
      <trkpt lat="43.9933" lon="4.05235">
        <ele>113.552</ele>
        <time>2019-10-26T09:47:48Z</time>
      </trkpt>
      <trkpt lat="43.99451" lon="4.05264">
        <ele>116.089</ele>
        <time>2019-10-26T09:48:21Z</time>
      </trkpt>
      <trkpt lat="43.99558" lon="4.0529">
        <ele>117.617</ele>
        <time>2019-10-26T09:48:51Z</time>
      </trkpt>
      <trkpt lat="43.99669" lon="4.05318">
        <ele>119.586</ele>
        <time>2019-10-26T09:49:24Z</time>
      </trkpt>
      <trkpt lat="43.99761" lon="4.05339">
        <ele>123.364</ele>
        <time>2019-10-26T09:49:54Z</time>
      </trkpt>
      <trkpt lat="43.99868" lon="4.05368">
        <ele>127.243</ele>
        <time>2019-10-26T09:50:27Z</time>
      </trkpt>
      <trkpt lat="43.99969" lon="4.0538">
        <ele>129.044</ele>
        <time>2019-10-26T09:50:57Z</time>
      </trkpt>
      <trkpt lat="44.0005" lon="4.05384">
        <ele>130.949</ele>
        <time>2019-10-26T09:51:27Z</time>
      </trkpt>
      <trkpt lat="44.00132" lon="4.05389">
        <ele>134.948</ele>
        <time>2019-10-26T09:52:00Z</time>
      </trkpt>
      <trkpt lat="44.00201" lon="4.05394">
        <ele>140.08</ele>
        <time>2019-10-26T09:52:30Z</time>
      </trkpt>
      <trkpt lat="44.00304" lon="4.05401">
        <ele>140.581</ele>
        <time>2019-10-26T09:53:03Z</time>
      </trkpt>
      <trkpt lat="44.00402" lon="4.05432">
        <ele>141.859</ele>
        <time>2019-10-26T09:53:33Z</time>
      </trkpt>
      <trkpt lat="44.0049" lon="4.05478">
        <ele>145.529</ele>
        <time>2019-10-26T09:54:06Z</time>
      </trkpt>
      <trkpt lat="44.00577" lon="4.05504">
        <ele>147.806</ele>
        <time>2019-10-26T09:54:36Z</time>
      </trkpt>
      <trkpt lat="44.00679" lon="4.05457">
        <ele>149.839</ele>
        <time>2019-10-26T09:55:09Z</time>
      </trkpt>
      <trkpt lat="44.00899" lon="4.05339">
        <ele>142.689</ele>
        <time>2019-10-26T09:55:39Z</time>
      </trkpt>
      <trkpt lat="44.01093" lon="4.05179">
        <ele>138.644</ele>
        <time>2019-10-26T09:56:12Z</time>
      </trkpt>
      <trkpt lat="44.01281" lon="4.05158">
        <ele>130.007</ele>
        <time>2019-10-26T09:56:42Z</time>
      </trkpt>
      <trkpt lat="44.01428" lon="4.05103">
        <ele>118.995</ele>
        <time>2019-10-26T09:57:12Z</time>
      </trkpt>
      <trkpt lat="44.0161" lon="4.05099">
        <ele>118.462</ele>
        <time>2019-10-26T09:57:45Z</time>
      </trkpt>
      <trkpt lat="44.01606" lon="4.05078">
        <ele>117.976</ele>
        <time>2019-10-26T09:58:45Z</time>
      </trkpt>
      <trkpt lat="44.01615" lon="4.05079">
        <ele>117.451</ele>
        <time>2019-10-26T10:00:57Z</time>
      </trkpt>
      <trkpt lat="44.01631" lon="4.05117">
        <ele>136.427</ele>
        <time>2019-10-26T10:06:16Z</time>
      </trkpt>
      <trkpt lat="44.0161" lon="4.05075">
        <ele>113.835</ele>
        <time>2019-10-26T10:09:25Z</time>
      </trkpt>
      <trkpt lat="44.01609" lon="4.05071">
        <ele>114.889</ele>
        <time>2019-10-26T10:11:22Z</time>
      </trkpt>
      <trkpt lat="44.01614" lon="4.05079">
        <ele>113.715</ele>
        <time>2019-10-26T10:15:04Z</time>
      </trkpt>
      <trkpt lat="44.0161" lon="4.05078">
        <ele>115.712</ele>
        <time>2019-10-26T10:21:04Z</time>
      </trkpt>
      <trkpt lat="44.01606" lon="4.05077">
        <ele>116.945</ele>
        <time>2019-10-26T10:26:16Z</time>
      </trkpt>
      <trkpt lat="44.01606" lon="4.05076">
        <ele>117.926</ele>
        <time>2019-10-26T10:28:04Z</time>
      </trkpt>
      <trkpt lat="44.01607" lon="4.05071">
        <ele>118.623</ele>
        <time>2019-10-26T10:29:49Z</time>
      </trkpt>
      <trkpt lat="44.01606" lon="4.05069">
        <ele>123.567</ele>
        <time>2019-10-26T10:33:55Z</time>
      </trkpt>
      <trkpt lat="44.01667" lon="4.0512">
        <ele>126.611</ele>
        <time>2019-10-26T10:34:28Z</time>
      </trkpt>
      <trkpt lat="44.0181" lon="4.05161">
        <ele>119.334</ele>
        <time>2019-10-26T10:35:01Z</time>
      </trkpt>
      <trkpt lat="44.01964" lon="4.05174">
        <ele>112.469</ele>
        <time>2019-10-26T10:35:31Z</time>
      </trkpt>
      <trkpt lat="44.02123" lon="4.05092">
        <ele>109.229</ele>
        <time>2019-10-26T10:36:04Z</time>
      </trkpt>
      <trkpt lat="44.02282" lon="4.05082">
        <ele>109.14</ele>
        <time>2019-10-26T10:36:34Z</time>
      </trkpt>
      <trkpt lat="44.02452" lon="4.05058">
        <ele>109.484</ele>
        <time>2019-10-26T10:37:07Z</time>
      </trkpt>
      <trkpt lat="44.02566" lon="4.05039">
        <ele>114.407</ele>
        <time>2019-10-26T10:37:37Z</time>
      </trkpt>
      <trkpt lat="44.02716" lon="4.05017">
        <ele>117.174</ele>
        <time>2019-10-26T10:38:10Z</time>
      </trkpt>
      <trkpt lat="44.02918" lon="4.04987">
        <ele>111.179</ele>
        <time>2019-10-26T10:38:40Z</time>
      </trkpt>
      <trkpt lat="44.03094" lon="4.0499">
        <ele>108.785</ele>
        <time>2019-10-26T10:39:10Z</time>
      </trkpt>
      <trkpt lat="44.03224" lon="4.05055">
        <ele>114.217</ele>
        <time>2019-10-26T10:39:43Z</time>
      </trkpt>
      <trkpt lat="44.0327" lon="4.05111">
        <ele>123.923</ele>
        <time>2019-10-26T10:40:13Z</time>
      </trkpt>
      <trkpt lat="44.03363" lon="4.0515">
        <ele>121.93</ele>
        <time>2019-10-26T10:40:46Z</time>
      </trkpt>
      <trkpt lat="44.03511" lon="4.05193">
        <ele>117.678</ele>
        <time>2019-10-26T10:41:16Z</time>
      </trkpt>
      <trkpt lat="44.03628" lon="4.05223">
        <ele>122.932</ele>
        <time>2019-10-26T10:41:49Z</time>
      </trkpt>
      <trkpt lat="44.03795" lon="4.0528">
        <ele>118.558</ele>
        <time>2019-10-26T10:42:19Z</time>
      </trkpt>
      <trkpt lat="44.04032" lon="4.05323">
        <ele>112.646</ele>
        <time>2019-10-26T10:42:52Z</time>
      </trkpt>
      <trkpt lat="44.04171" lon="4.05358">
        <ele>115.346</ele>
        <time>2019-10-26T10:43:22Z</time>
      </trkpt>
      <trkpt lat="44.04294" lon="4.0539">
        <ele>119.638</ele>
        <time>2019-10-26T10:43:55Z</time>
      </trkpt>
      <trkpt lat="44.04412" lon="4.05423">
        <ele>121.447</ele>
        <time>2019-10-26T10:44:25Z</time>
      </trkpt>
      <trkpt lat="44.0454" lon="4.05476">
        <ele>126.455</ele>
        <time>2019-10-26T10:44:55Z</time>
      </trkpt>
      <trkpt lat="44.04673" lon="4.05532">
        <ele>124.244</ele>
        <time>2019-10-26T10:45:28Z</time>
      </trkpt>
      <trkpt lat="44.04783" lon="4.05579">
        <ele>127.325</ele>
        <time>2019-10-26T10:45:58Z</time>
      </trkpt>
      <trkpt lat="44.0491" lon="4.05641">
        <ele>130.432</ele>
        <time>2019-10-26T10:46:31Z</time>
      </trkpt>
      <trkpt lat="44.0507" lon="4.05726">
        <ele>129.628</ele>
        <time>2019-10-26T10:47:01Z</time>
      </trkpt>
      <trkpt lat="44.05205" lon="4.0581">
        <ele>135.128</ele>
        <time>2019-10-26T10:47:34Z</time>
      </trkpt>
      <trkpt lat="44.05301" lon="4.05885">
        <ele>140.038</ele>
        <time>2019-10-26T10:48:04Z</time>
      </trkpt>
      <trkpt lat="44.05424" lon="4.05985">
        <ele>131.224</ele>
        <time>2019-10-26T10:48:37Z</time>
      </trkpt>
      <trkpt lat="44.05533" lon="4.06074">
        <ele>132.891</ele>
        <time>2019-10-26T10:49:07Z</time>
      </trkpt>
      <trkpt lat="44.05705" lon="4.06236">
        <ele>132.972</ele>
        <time>2019-10-26T10:49:40Z</time>
      </trkpt>
      <trkpt lat="44.05885" lon="4.06422">
        <ele>129.917</ele>
        <time>2019-10-26T10:50:10Z</time>
      </trkpt>
      <trkpt lat="44.06054" lon="4.06597">
        <ele>129.584</ele>
        <time>2019-10-26T10:50:43Z</time>
      </trkpt>
      <trkpt lat="44.06196" lon="4.06728">
        <ele>127.83</ele>
        <time>2019-10-26T10:51:13Z</time>
      </trkpt>
      <trkpt lat="44.06371" lon="4.0682">
        <ele>129.739</ele>
        <time>2019-10-26T10:51:43Z</time>
      </trkpt>
      <trkpt lat="44.06598" lon="4.06843">
        <ele>123.745</ele>
        <time>2019-10-26T10:52:16Z</time>
      </trkpt>
      <trkpt lat="44.06765" lon="4.06933">
        <ele>128.534</ele>
        <time>2019-10-26T10:52:46Z</time>
      </trkpt>
      <trkpt lat="44.06924" lon="4.07021">
        <ele>126.826</ele>
        <time>2019-10-26T10:53:19Z</time>
      </trkpt>
      <trkpt lat="44.07111" lon="4.07124">
        <ele>125.971</ele>
        <time>2019-10-26T10:53:49Z</time>
      </trkpt>
      <trkpt lat="44.07283" lon="4.07147">
        <ele>124.592</ele>
        <time>2019-10-26T10:54:22Z</time>
      </trkpt>
      <trkpt lat="44.07437" lon="4.0717">
        <ele>126.208</ele>
        <time>2019-10-26T10:54:52Z</time>
      </trkpt>
      <trkpt lat="44.07593" lon="4.07166">
        <ele>131.846</ele>
        <time>2019-10-26T10:55:25Z</time>
      </trkpt>
      <trkpt lat="44.07745" lon="4.07157">
        <ele>131.522</ele>
        <time>2019-10-26T10:55:55Z</time>
      </trkpt>
      <trkpt lat="44.07906" lon="4.07148">
        <ele>132.568</ele>
        <time>2019-10-26T10:56:28Z</time>
      </trkpt>
      <trkpt lat="44.08044" lon="4.07106">
        <ele>133.589</ele>
        <time>2019-10-26T10:56:58Z</time>
      </trkpt>
      <trkpt lat="44.08151" lon="4.07151">
        <ele>135.78</ele>
        <time>2019-10-26T10:57:28Z</time>
      </trkpt>
      <trkpt lat="44.08234" lon="4.07339">
        <ele>135.754</ele>
        <time>2019-10-26T10:58:01Z</time>
      </trkpt>
      <trkpt lat="44.08312" lon="4.07499">
        <ele>138.316</ele>
        <time>2019-10-26T10:58:31Z</time>
      </trkpt>
      <trkpt lat="44.08415" lon="4.07695">
        <ele>140.232</ele>
        <time>2019-10-26T10:59:04Z</time>
      </trkpt>
      <trkpt lat="44.08568" lon="4.07731">
        <ele>147.89</ele>
        <time>2019-10-26T10:59:34Z</time>
      </trkpt>
      <trkpt lat="44.08747" lon="4.07779">
        <ele>141.753</ele>
        <time>2019-10-26T11:00:07Z</time>
      </trkpt>
      <trkpt lat="44.09009" lon="4.07855">
        <ele>121.605</ele>
        <time>2019-10-26T11:00:37Z</time>
      </trkpt>
      <trkpt lat="44.0919" lon="4.07901">
        <ele>124.472</ele>
        <time>2019-10-26T11:01:10Z</time>
      </trkpt>
      <trkpt lat="44.09339" lon="4.07947">
        <ele>130.678</ele>
        <time>2019-10-26T11:01:40Z</time>
      </trkpt>
      <trkpt lat="44.09425" lon="4.07969">
        <ele>135.653</ele>
        <time>2019-10-26T11:02:13Z</time>
      </trkpt>
      <trkpt lat="44.09498" lon="4.07987">
        <ele>142.579</ele>
        <time>2019-10-26T11:02:43Z</time>
      </trkpt>
      <trkpt lat="44.09566" lon="4.08008">
        <ele>143.973</ele>
        <time>2019-10-26T11:03:13Z</time>
      </trkpt>
      <trkpt lat="44.09648" lon="4.08029">
        <ele>149.96</ele>
        <time>2019-10-26T11:03:46Z</time>
      </trkpt>
      <trkpt lat="44.09739" lon="4.08054">
        <ele>153.472</ele>
        <time>2019-10-26T11:04:16Z</time>
      </trkpt>
      <trkpt lat="44.09892" lon="4.08096">
        <ele>145.579</ele>
        <time>2019-10-26T11:04:49Z</time>
      </trkpt>
      <trkpt lat="44.10116" lon="4.08125">
        <ele>140.147</ele>
        <time>2019-10-26T11:05:19Z</time>
      </trkpt>
      <trkpt lat="44.10414" lon="4.08232">
        <ele>125.112</ele>
        <time>2019-10-26T11:05:52Z</time>
      </trkpt>
      <trkpt lat="44.10604" lon="4.08179">
        <ele>121.615</ele>
        <time>2019-10-26T11:06:22Z</time>
      </trkpt>
      <trkpt lat="44.10686" lon="4.08162">
        <ele>130.581</ele>
        <time>2019-10-26T11:10:37Z</time>
      </trkpt>
      <trkpt lat="44.10805" lon="4.08122">
        <ele>136.082</ele>
        <time>2019-10-26T11:11:07Z</time>
      </trkpt>
      <trkpt lat="44.10932" lon="4.08092">
        <ele>137.897</ele>
        <time>2019-10-26T11:11:40Z</time>
      </trkpt>
      <trkpt lat="44.11043" lon="4.08065">
        <ele>140.094</ele>
        <time>2019-10-26T11:12:10Z</time>
      </trkpt>
      <trkpt lat="44.11159" lon="4.08034">
        <ele>140.069</ele>
        <time>2019-10-26T11:12:40Z</time>
      </trkpt>
      <trkpt lat="44.11289" lon="4.07997">
        <ele>151.115</ele>
        <time>2019-10-26T11:13:13Z</time>
      </trkpt>
      <trkpt lat="44.11435" lon="4.08043">
        <ele>148.711</ele>
        <time>2019-10-26T11:13:43Z</time>
      </trkpt>
      <trkpt lat="44.11572" lon="4.08102">
        <ele>148.131</ele>
        <time>2019-10-26T11:14:16Z</time>
      </trkpt>
      <trkpt lat="44.11695" lon="4.08127">
        <ele>154.702</ele>
        <time>2019-10-26T11:14:46Z</time>
      </trkpt>
      <trkpt lat="44.11825" lon="4.07999">
        <ele>149.082</ele>
        <time>2019-10-26T11:15:19Z</time>
      </trkpt>
      <trkpt lat="44.11974" lon="4.07904">
        <ele>145.039</ele>
        <time>2019-10-26T11:15:49Z</time>
      </trkpt>
      <trkpt lat="44.12052" lon="4.07882">
        <ele>137.837</ele>
        <time>2019-10-26T11:17:10Z</time>
      </trkpt>
      <trkpt lat="44.12096" lon="4.07748">
        <ele>134.357</ele>
        <time>2019-10-26T11:17:40Z</time>
      </trkpt>
      <trkpt lat="44.12122" lon="4.07593">
        <ele>136.545</ele>
        <time>2019-10-26T11:18:13Z</time>
      </trkpt>
      <trkpt lat="44.12139" lon="4.07552">
        <ele>135.471</ele>
        <time>2019-10-26T11:18:46Z</time>
      </trkpt>
      <trkpt lat="44.12169" lon="4.07498">
        <ele>133.114</ele>
        <time>2019-10-26T11:20:04Z</time>
      </trkpt>
      <trkpt lat="44.12242" lon="4.07381">
        <ele>140.48</ele>
        <time>2019-10-26T11:20:34Z</time>
      </trkpt>
      <trkpt lat="44.12339" lon="4.07275">
        <ele>140.386</ele>
        <time>2019-10-26T11:21:04Z</time>
      </trkpt>
      <trkpt lat="44.12473" lon="4.07237">
        <ele>132.691</ele>
        <time>2019-10-26T11:21:37Z</time>
      </trkpt>
      <trkpt lat="44.12593" lon="4.07305">
        <ele>133.454</ele>
        <time>2019-10-26T11:22:07Z</time>
      </trkpt>
      <trkpt lat="44.12732" lon="4.07315">
        <ele>136.909</ele>
        <time>2019-10-26T11:22:40Z</time>
      </trkpt>
      <trkpt lat="44.12884" lon="4.07309">
        <ele>132.409</ele>
        <time>2019-10-26T11:23:10Z</time>
      </trkpt>
      <trkpt lat="44.13038" lon="4.07388">
        <ele>135.699</ele>
        <time>2019-10-26T11:23:43Z</time>
      </trkpt>
      <trkpt lat="44.13148" lon="4.07521">
        <ele>138.489</ele>
        <time>2019-10-26T11:24:13Z</time>
      </trkpt>
      <trkpt lat="44.13258" lon="4.07688">
        <ele>138.394</ele>
        <time>2019-10-26T11:24:46Z</time>
      </trkpt>
      <trkpt lat="44.13363" lon="4.07811">
        <ele>137.138</ele>
        <time>2019-10-26T11:25:16Z</time>
      </trkpt>
      <trkpt lat="44.13421" lon="4.07751">
        <ele>137.791</ele>
        <time>2019-10-26T11:25:58Z</time>
      </trkpt>
      <trkpt lat="44.13521" lon="4.07781">
        <ele>137.651</ele>
        <time>2019-10-26T11:26:28Z</time>
      </trkpt>
      <trkpt lat="44.13668" lon="4.07845">
        <ele>131.881</ele>
        <time>2019-10-26T11:26:58Z</time>
      </trkpt>
      <trkpt lat="44.13834" lon="4.07854">
        <ele>133.454</ele>
        <time>2019-10-26T11:27:31Z</time>
      </trkpt>
      <trkpt lat="44.13978" lon="4.07813">
        <ele>135.857</ele>
        <time>2019-10-26T11:28:01Z</time>
      </trkpt>
      <trkpt lat="44.14129" lon="4.07749">
        <ele>138.04</ele>
        <time>2019-10-26T11:28:34Z</time>
      </trkpt>
      <trkpt lat="44.14268" lon="4.07681">
        <ele>136.428</ele>
        <time>2019-10-26T11:29:04Z</time>
      </trkpt>
      <trkpt lat="44.14346" lon="4.07518">
        <ele>135.852</ele>
        <time>2019-10-26T11:29:37Z</time>
      </trkpt>
      <trkpt lat="44.14411" lon="4.07417">
        <ele>142.595</ele>
        <time>2019-10-26T11:30:07Z</time>
      </trkpt>
      <trkpt lat="44.14508" lon="4.0722">
        <ele>145.627</ele>
        <time>2019-10-26T11:30:40Z</time>
      </trkpt>
      <trkpt lat="44.14511" lon="4.07031">
        <ele>138.777</ele>
        <time>2019-10-26T11:31:10Z</time>
      </trkpt>
      <trkpt lat="44.14436" lon="4.0684">
        <ele>139.871</ele>
        <time>2019-10-26T11:31:43Z</time>
      </trkpt>
      <trkpt lat="44.14365" lon="4.06681">
        <ele>144.106</ele>
        <time>2019-10-26T11:32:13Z</time>
      </trkpt>
      <trkpt lat="44.14359" lon="4.06496">
        <ele>151.766</ele>
        <time>2019-10-26T11:32:43Z</time>
      </trkpt>
      <trkpt lat="44.14443" lon="4.06319">
        <ele>160</ele>
        <time>2019-10-26T11:33:16Z</time>
      </trkpt>
      <trkpt lat="44.14569" lon="4.06174">
        <ele>150.904</ele>
        <time>2019-10-26T11:33:46Z</time>
      </trkpt>
      <trkpt lat="44.14678" lon="4.06002">
        <ele>144.603</ele>
        <time>2019-10-26T11:34:19Z</time>
      </trkpt>
      <trkpt lat="44.14745" lon="4.05861">
        <ele>151.434</ele>
        <time>2019-10-26T11:34:49Z</time>
      </trkpt>
      <trkpt lat="44.1487" lon="4.05761">
        <ele>151.771</ele>
        <time>2019-10-26T11:35:22Z</time>
      </trkpt>
      <trkpt lat="44.14993" lon="4.05746">
        <ele>151.946</ele>
        <time>2019-10-26T11:35:52Z</time>
      </trkpt>
      <trkpt lat="44.15136" lon="4.0576">
        <ele>155.253</ele>
        <time>2019-10-26T11:36:25Z</time>
      </trkpt>
      <trkpt lat="44.15188" lon="4.05699">
        <ele>152.761</ele>
        <time>2019-10-26T11:38:40Z</time>
      </trkpt>
      <trkpt lat="44.15331" lon="4.05648">
        <ele>154.128</ele>
        <time>2019-10-26T11:39:13Z</time>
      </trkpt>
      <trkpt lat="44.15526" lon="4.05628">
        <ele>149.997</ele>
        <time>2019-10-26T11:39:43Z</time>
      </trkpt>
      <trkpt lat="44.15655" lon="4.05704">
        <ele>151.399</ele>
        <time>2019-10-26T11:40:13Z</time>
      </trkpt>
      <trkpt lat="44.15832" lon="4.05717">
        <ele>156.495</ele>
        <time>2019-10-26T11:40:46Z</time>
      </trkpt>
      <trkpt lat="44.15985" lon="4.05713">
        <ele>153.837</ele>
        <time>2019-10-26T11:41:16Z</time>
      </trkpt>
      <trkpt lat="44.16118" lon="4.05662">
        <ele>156.923</ele>
        <time>2019-10-26T11:41:49Z</time>
      </trkpt>
      <trkpt lat="44.16241" lon="4.05635">
        <ele>160.357</ele>
        <time>2019-10-26T11:42:19Z</time>
      </trkpt>
      <trkpt lat="44.16372" lon="4.05549">
        <ele>159.75</ele>
        <time>2019-10-26T11:42:52Z</time>
      </trkpt>
      <trkpt lat="44.1638" lon="4.05408">
        <ele>162.045</ele>
        <time>2019-10-26T11:43:22Z</time>
      </trkpt>
      <trkpt lat="44.16443" lon="4.05309">
        <ele>170.617</ele>
        <time>2019-10-26T11:43:55Z</time>
      </trkpt>
      <trkpt lat="44.16484" lon="4.05187">
        <ele>167.108</ele>
        <time>2019-10-26T11:44:25Z</time>
      </trkpt>
      <trkpt lat="44.16628" lon="4.04972">
        <ele>170.608</ele>
        <time>2019-10-26T11:44:58Z</time>
      </trkpt>
      <trkpt lat="44.16798" lon="4.04927">
        <ele>166.519</ele>
        <time>2019-10-26T11:45:28Z</time>
      </trkpt>
      <trkpt lat="44.16925" lon="4.05085">
        <ele>161.16</ele>
        <time>2019-10-26T11:45:58Z</time>
      </trkpt>
      <trkpt lat="44.16996" lon="4.051">
        <ele>156.194</ele>
        <time>2019-10-26T11:46:34Z</time>
      </trkpt>
      <trkpt lat="44.17051" lon="4.04964">
        <ele>157.991</ele>
        <time>2019-10-26T11:47:04Z</time>
      </trkpt>
      <trkpt lat="44.17193" lon="4.04878">
        <ele>166.219</ele>
        <time>2019-10-26T11:47:37Z</time>
      </trkpt>
      <trkpt lat="44.17337" lon="4.04869">
        <ele>161.279</ele>
        <time>2019-10-26T11:48:07Z</time>
      </trkpt>
      <trkpt lat="44.17488" lon="4.04924">
        <ele>161.684</ele>
        <time>2019-10-26T11:48:40Z</time>
      </trkpt>
      <trkpt lat="44.17612" lon="4.0501">
        <ele>159.515</ele>
        <time>2019-10-26T11:49:10Z</time>
      </trkpt>
      <trkpt lat="44.17724" lon="4.05133">
        <ele>164.873</ele>
        <time>2019-10-26T11:49:43Z</time>
      </trkpt>
      <trkpt lat="44.17842" lon="4.05166">
        <ele>165.897</ele>
        <time>2019-10-26T11:50:13Z</time>
      </trkpt>
      <trkpt lat="44.17972" lon="4.051">
        <ele>165.951</ele>
        <time>2019-10-26T11:50:46Z</time>
      </trkpt>
      <trkpt lat="44.18074" lon="4.04998">
        <ele>169.296</ele>
        <time>2019-10-26T11:51:16Z</time>
      </trkpt>
      <trkpt lat="44.18151" lon="4.04879">
        <ele>176.745</ele>
        <time>2019-10-26T11:51:49Z</time>
      </trkpt>
      <trkpt lat="44.18227" lon="4.0476">
        <ele>175.18</ele>
        <time>2019-10-26T11:52:19Z</time>
      </trkpt>
      <trkpt lat="44.18371" lon="4.04607">
        <ele>171.334</ele>
        <time>2019-10-26T11:52:49Z</time>
      </trkpt>
      <trkpt lat="44.18493" lon="4.04577">
        <ele>173.758</ele>
        <time>2019-10-26T11:53:22Z</time>
      </trkpt>
      <trkpt lat="44.18594" lon="4.04553">
        <ele>177.202</ele>
        <time>2019-10-26T11:53:52Z</time>
      </trkpt>
      <trkpt lat="44.18722" lon="4.04522">
        <ele>183.923</ele>
        <time>2019-10-26T11:54:25Z</time>
      </trkpt>
      <trkpt lat="44.18838" lon="4.04487">
        <ele>184.653</ele>
        <time>2019-10-26T11:54:55Z</time>
      </trkpt>
      <trkpt lat="44.18974" lon="4.04437">
        <ele>181.794</ele>
        <time>2019-10-26T11:55:28Z</time>
      </trkpt>
      <trkpt lat="44.19116" lon="4.04409">
        <ele>180.294</ele>
        <time>2019-10-26T11:55:58Z</time>
      </trkpt>
      <trkpt lat="44.19408" lon="4.04473">
        <ele>168.66</ele>
        <time>2019-10-26T11:56:31Z</time>
      </trkpt>
      <trkpt lat="44.1956" lon="4.04528">
        <ele>164.812</ele>
        <time>2019-10-26T11:57:01Z</time>
      </trkpt>
      <trkpt lat="44.1972" lon="4.04551">
        <ele>173.099</ele>
        <time>2019-10-26T11:57:34Z</time>
      </trkpt>
      <trkpt lat="44.19841" lon="4.04585">
        <ele>177.31</ele>
        <time>2019-10-26T11:58:04Z</time>
      </trkpt>
      <trkpt lat="44.19922" lon="4.04691">
        <ele>183.735</ele>
        <time>2019-10-26T11:58:34Z</time>
      </trkpt>
      <trkpt lat="44.20039" lon="4.04791">
        <ele>178.719</ele>
        <time>2019-10-26T11:59:07Z</time>
      </trkpt>
      <trkpt lat="44.20059" lon="4.04659">
        <ele>178.961</ele>
        <time>2019-10-26T11:59:37Z</time>
      </trkpt>
      <trkpt lat="44.20003" lon="4.0446">
        <ele>173.615</ele>
        <time>2019-10-26T12:00:10Z</time>
      </trkpt>
      <trkpt lat="44.19975" lon="4.04266">
        <ele>174.222</ele>
        <time>2019-10-26T12:00:40Z</time>
      </trkpt>
      <trkpt lat="44.1996" lon="4.04086">
        <ele>176.341</ele>
        <time>2019-10-26T12:01:13Z</time>
      </trkpt>
      <trkpt lat="44.20049" lon="4.03989">
        <ele>178.613</ele>
        <time>2019-10-26T12:01:43Z</time>
      </trkpt>
      <trkpt lat="44.20176" lon="4.03887">
        <ele>177.229</ele>
        <time>2019-10-26T12:02:16Z</time>
      </trkpt>
      <trkpt lat="44.2025" lon="4.03764">
        <ele>176.38</ele>
        <time>2019-10-26T12:02:46Z</time>
      </trkpt>
      <trkpt lat="44.20337" lon="4.03874">
        <ele>177.042</ele>
        <time>2019-10-26T12:03:19Z</time>
      </trkpt>
      <trkpt lat="44.20481" lon="4.03909">
        <ele>178.501</ele>
        <time>2019-10-26T12:03:49Z</time>
      </trkpt>
      <trkpt lat="44.20605" lon="4.03921">
        <ele>179.805</ele>
        <time>2019-10-26T12:04:19Z</time>
      </trkpt>
      <trkpt lat="44.20732" lon="4.03861">
        <ele>182.733</ele>
        <time>2019-10-26T12:04:52Z</time>
      </trkpt>
      <trkpt lat="44.20769" lon="4.03818">
        <ele>183.575</ele>
        <time>2019-10-26T12:07:37Z</time>
      </trkpt>
      <trkpt lat="44.20779" lon="4.03795">
        <ele>183.672</ele>
        <time>2019-10-26T12:25:19Z</time>
      </trkpt>
      <trkpt lat="44.20831" lon="4.03666">
        <ele>185.536</ele>
        <time>2019-10-26T12:25:49Z</time>
      </trkpt>
      <trkpt lat="44.20833" lon="4.03487">
        <ele>184.884</ele>
        <time>2019-10-26T12:26:22Z</time>
      </trkpt>
      <trkpt lat="44.20758" lon="4.03431">
        <ele>194.472</ele>
        <time>2019-10-26T12:26:52Z</time>
      </trkpt>
      <trkpt lat="44.2074" lon="4.03297">
        <ele>201.967</ele>
        <time>2019-10-26T12:27:25Z</time>
      </trkpt>
      <trkpt lat="44.20721" lon="4.03159">
        <ele>201.302</ele>
        <time>2019-10-26T12:27:55Z</time>
      </trkpt>
      <trkpt lat="44.20718" lon="4.03026">
        <ele>198.279</ele>
        <time>2019-10-26T12:28:28Z</time>
      </trkpt>
      <trkpt lat="44.2081" lon="4.03004">
        <ele>192.659</ele>
        <time>2019-10-26T12:28:58Z</time>
      </trkpt>
      <trkpt lat="44.209" lon="4.0298">
        <ele>195.177</ele>
        <time>2019-10-26T12:29:28Z</time>
      </trkpt>
      <trkpt lat="44.21006" lon="4.02976">
        <ele>199.683</ele>
        <time>2019-10-26T12:30:01Z</time>
      </trkpt>
      <trkpt lat="44.21057" lon="4.02948">
        <ele>205.036</ele>
        <time>2019-10-26T12:30:31Z</time>
      </trkpt>
      <trkpt lat="44.21057" lon="4.02894">
        <ele>204.543</ele>
        <time>2019-10-26T12:32:34Z</time>
      </trkpt>
      <trkpt lat="44.21087" lon="4.02815">
        <ele>207.234</ele>
        <time>2019-10-26T12:33:16Z</time>
      </trkpt>
      <trkpt lat="44.21128" lon="4.02622">
        <ele>206.424</ele>
        <time>2019-10-26T12:33:49Z</time>
      </trkpt>
      <trkpt lat="44.21128" lon="4.02555">
        <ele>200.195</ele>
        <time>2019-10-26T12:34:19Z</time>
      </trkpt>
      <trkpt lat="44.21203" lon="4.02412">
        <ele>193.985</ele>
        <time>2019-10-26T12:34:52Z</time>
      </trkpt>
      <trkpt lat="44.21309" lon="4.02304">
        <ele>193.777</ele>
        <time>2019-10-26T12:35:22Z</time>
      </trkpt>
      <trkpt lat="44.21439" lon="4.02256">
        <ele>199.836</ele>
        <time>2019-10-26T12:35:55Z</time>
      </trkpt>
      <trkpt lat="44.2151" lon="4.02196">
        <ele>209.732</ele>
        <time>2019-10-26T12:36:25Z</time>
      </trkpt>
      <trkpt lat="44.21596" lon="4.02135">
        <ele>211.876</ele>
        <time>2019-10-26T12:36:58Z</time>
      </trkpt>
      <trkpt lat="44.21705" lon="4.02058">
        <ele>215.959</ele>
        <time>2019-10-26T12:37:28Z</time>
      </trkpt>
      <trkpt lat="44.21859" lon="4.01909">
        <ele>218.776</ele>
        <time>2019-10-26T12:37:58Z</time>
      </trkpt>
      <trkpt lat="44.22026" lon="4.01814">
        <ele>202.217</ele>
        <time>2019-10-26T12:38:31Z</time>
      </trkpt>
      <trkpt lat="44.22129" lon="4.01681">
        <ele>204.264</ele>
        <time>2019-10-26T12:39:01Z</time>
      </trkpt>
      <trkpt lat="44.22238" lon="4.01543">
        <ele>206.205</ele>
        <time>2019-10-26T12:39:34Z</time>
      </trkpt>
      <trkpt lat="44.22299" lon="4.01493">
        <ele>207.879</ele>
        <time>2019-10-26T12:40:04Z</time>
      </trkpt>
      <trkpt lat="44.22363" lon="4.01476">
        <ele>217.544</ele>
        <time>2019-10-26T12:40:37Z</time>
      </trkpt>
      <trkpt lat="44.22407" lon="4.01445">
        <ele>218.223</ele>
        <time>2019-10-26T12:41:07Z</time>
      </trkpt>
      <trkpt lat="44.22453" lon="4.01374">
        <ele>228.796</ele>
        <time>2019-10-26T12:41:43Z</time>
      </trkpt>
      <trkpt lat="44.22514" lon="4.01349">
        <ele>234.123</ele>
        <time>2019-10-26T12:42:13Z</time>
      </trkpt>
      <trkpt lat="44.22576" lon="4.01341">
        <ele>237.962</ele>
        <time>2019-10-26T12:42:49Z</time>
      </trkpt>
      <trkpt lat="44.22645" lon="4.0133">
        <ele>248.982</ele>
        <time>2019-10-26T12:43:34Z</time>
      </trkpt>
      <trkpt lat="44.22685" lon="4.01317">
        <ele>250.186</ele>
        <time>2019-10-26T12:45:52Z</time>
      </trkpt>
      <trkpt lat="44.22625" lon="4.01324">
        <ele>248.29</ele>
        <time>2019-10-26T12:48:22Z</time>
      </trkpt>
      <trkpt lat="44.22505" lon="4.01336">
        <ele>225.115</ele>
        <time>2019-10-26T12:48:55Z</time>
      </trkpt>
      <trkpt lat="44.22636" lon="4.01261">
        <ele>217.561</ele>
        <time>2019-10-26T12:49:28Z</time>
      </trkpt>
      <trkpt lat="44.22774" lon="4.01167">
        <ele>210.097</ele>
        <time>2019-10-26T12:49:58Z</time>
      </trkpt>
      <trkpt lat="44.22879" lon="4.0106">
        <ele>207.59</ele>
        <time>2019-10-26T12:50:31Z</time>
      </trkpt>
      <trkpt lat="44.22816" lon="4.01034">
        <ele>211.924</ele>
        <time>2019-10-26T12:51:04Z</time>
      </trkpt>
      <trkpt lat="44.22818" lon="4.00926">
        <ele>210.649</ele>
        <time>2019-10-26T12:51:37Z</time>
      </trkpt>
      <trkpt lat="44.22887" lon="4.00792">
        <ele>213.999</ele>
        <time>2019-10-26T12:52:07Z</time>
      </trkpt>
      <trkpt lat="44.22968" lon="4.00653">
        <ele>217.938</ele>
        <time>2019-10-26T12:52:40Z</time>
      </trkpt>
      <trkpt lat="44.23046" lon="4.0052">
        <ele>217.705</ele>
        <time>2019-10-26T12:53:10Z</time>
      </trkpt>
      <trkpt lat="44.23103" lon="4.00364">
        <ele>217.281</ele>
        <time>2019-10-26T12:53:40Z</time>
      </trkpt>
      <trkpt lat="44.2306" lon="4.00153">
        <ele>214.373</ele>
        <time>2019-10-26T12:54:13Z</time>
      </trkpt>
      <trkpt lat="44.23011" lon="3.99971">
        <ele>215.197</ele>
        <time>2019-10-26T12:54:43Z</time>
      </trkpt>
      <trkpt lat="44.2301" lon="3.99815">
        <ele>220.696</ele>
        <time>2019-10-26T12:55:16Z</time>
      </trkpt>
      <trkpt lat="44.23027" lon="3.99725">
        <ele>224.958</ele>
        <time>2019-10-26T12:55:49Z</time>
      </trkpt>
      <trkpt lat="44.23046" lon="3.99634">
        <ele>235.297</ele>
        <time>2019-10-26T12:56:22Z</time>
      </trkpt>
      <trkpt lat="44.23088" lon="3.996">
        <ele>238.068</ele>
        <time>2019-10-26T12:56:52Z</time>
      </trkpt>
      <trkpt lat="44.23141" lon="3.99528">
        <ele>245.411</ele>
        <time>2019-10-26T12:57:25Z</time>
      </trkpt>
      <trkpt lat="44.23197" lon="3.99509">
        <ele>254.308</ele>
        <time>2019-10-26T12:57:58Z</time>
      </trkpt>
      <trkpt lat="44.23262" lon="3.99487">
        <ele>257.868</ele>
        <time>2019-10-26T12:58:40Z</time>
      </trkpt>
      <trkpt lat="44.23289" lon="3.9941">
        <ele>261.17</ele>
        <time>2019-10-26T12:59:22Z</time>
      </trkpt>
      <trkpt lat="44.23332" lon="3.9935">
        <ele>269.804</ele>
        <time>2019-10-26T13:00:01Z</time>
      </trkpt>
      <trkpt lat="44.23384" lon="3.99299">
        <ele>272.678</ele>
        <time>2019-10-26T13:00:34Z</time>
      </trkpt>
      <trkpt lat="44.2344" lon="3.99249">
        <ele>276.471</ele>
        <time>2019-10-26T13:01:04Z</time>
      </trkpt>
      <trkpt lat="44.23512" lon="3.99255">
        <ele>279.654</ele>
        <time>2019-10-26T13:01:37Z</time>
      </trkpt>
      <trkpt lat="44.23572" lon="3.99225">
        <ele>286.891</ele>
        <time>2019-10-26T13:02:07Z</time>
      </trkpt>
      <trkpt lat="44.23652" lon="3.99143">
        <ele>288.838</ele>
        <time>2019-10-26T13:02:40Z</time>
      </trkpt>
      <trkpt lat="44.23683" lon="3.99082">
        <ele>287.691</ele>
        <time>2019-10-26T13:03:10Z</time>
      </trkpt>
      <trkpt lat="44.23728" lon="3.99012">
        <ele>291.101</ele>
        <time>2019-10-26T13:03:52Z</time>
      </trkpt>
      <trkpt lat="44.23775" lon="3.98957">
        <ele>293.904</ele>
        <time>2019-10-26T13:04:25Z</time>
      </trkpt>
      <trkpt lat="44.2384" lon="3.98924">
        <ele>302.367</ele>
        <time>2019-10-26T13:05:01Z</time>
      </trkpt>
      <trkpt lat="44.23994" lon="3.98908">
        <ele>299.291</ele>
        <time>2019-10-26T13:05:31Z</time>
      </trkpt>
      <trkpt lat="44.24135" lon="3.98752">
        <ele>272.632</ele>
        <time>2019-10-26T13:06:04Z</time>
      </trkpt>
      <trkpt lat="44.24197" lon="3.98735">
        <ele>260.025</ele>
        <time>2019-10-26T13:06:46Z</time>
      </trkpt>
      <trkpt lat="44.24191" lon="3.98714">
        <ele>257.724</ele>
        <time>2019-10-26T13:09:25Z</time>
      </trkpt>
      <trkpt lat="44.24243" lon="3.98641">
        <ele>249.705</ele>
        <time>2019-10-26T13:10:01Z</time>
      </trkpt>
      <trkpt lat="44.2438" lon="3.98619">
        <ele>249.114</ele>
        <time>2019-10-26T13:10:31Z</time>
      </trkpt>
      <trkpt lat="44.24567" lon="3.98504">
        <ele>249.862</ele>
        <time>2019-10-26T13:11:04Z</time>
      </trkpt>
      <trkpt lat="44.24435" lon="3.98464">
        <ele>255.32</ele>
        <time>2019-10-26T13:11:34Z</time>
      </trkpt>
      <trkpt lat="44.24416" lon="3.98359">
        <ele>256.73</ele>
        <time>2019-10-26T13:12:10Z</time>
      </trkpt>
      <trkpt lat="44.24411" lon="3.98282">
        <ele>259.908</ele>
        <time>2019-10-26T13:12:40Z</time>
      </trkpt>
      <trkpt lat="44.2439" lon="3.98199">
        <ele>264.716</ele>
        <time>2019-10-26T13:13:13Z</time>
      </trkpt>
      <trkpt lat="44.2436" lon="3.98119">
        <ele>268.098</ele>
        <time>2019-10-26T13:13:49Z</time>
      </trkpt>
      <trkpt lat="44.24308" lon="3.98024">
        <ele>272.153</ele>
        <time>2019-10-26T13:14:22Z</time>
      </trkpt>
      <trkpt lat="44.24466" lon="3.97867">
        <ele>267.481</ele>
        <time>2019-10-26T13:14:52Z</time>
      </trkpt>
      <trkpt lat="44.24678" lon="3.9785">
        <ele>263.68</ele>
        <time>2019-10-26T13:15:22Z</time>
      </trkpt>
      <trkpt lat="44.24861" lon="3.97888">
        <ele>258.629</ele>
        <time>2019-10-26T13:15:55Z</time>
      </trkpt>
      <trkpt lat="44.24931" lon="3.97752">
        <ele>267.211</ele>
        <time>2019-10-26T13:16:25Z</time>
      </trkpt>
      <trkpt lat="44.24909" lon="3.97564">
        <ele>269.323</ele>
        <time>2019-10-26T13:16:58Z</time>
      </trkpt>
      <trkpt lat="44.24849" lon="3.97437">
        <ele>271.875</ele>
        <time>2019-10-26T13:17:28Z</time>
      </trkpt>
      <trkpt lat="44.24955" lon="3.97369">
        <ele>266.644</ele>
        <time>2019-10-26T13:18:01Z</time>
      </trkpt>
      <trkpt lat="44.25066" lon="3.97351">
        <ele>267.82</ele>
        <time>2019-10-26T13:18:31Z</time>
      </trkpt>
      <trkpt lat="44.25155" lon="3.97212">
        <ele>273.73</ele>
        <time>2019-10-26T13:19:04Z</time>
      </trkpt>
      <trkpt lat="44.25209" lon="3.97025">
        <ele>273.061</ele>
        <time>2019-10-26T13:19:34Z</time>
      </trkpt>
      <trkpt lat="44.25247" lon="3.96861">
        <ele>283.978</ele>
        <time>2019-10-26T13:20:07Z</time>
      </trkpt>
      <trkpt lat="44.25186" lon="3.96702">
        <ele>291.937</ele>
        <time>2019-10-26T13:20:37Z</time>
      </trkpt>
      <trkpt lat="44.25123" lon="3.96555">
        <ele>284.834</ele>
        <time>2019-10-26T13:21:07Z</time>
      </trkpt>
      <trkpt lat="44.2506" lon="3.96412">
        <ele>285.774</ele>
        <time>2019-10-26T13:21:40Z</time>
      </trkpt>
      <trkpt lat="44.25123" lon="3.9628">
        <ele>291.682</ele>
        <time>2019-10-26T13:22:10Z</time>
      </trkpt>
      <trkpt lat="44.25181" lon="3.96142">
        <ele>294.308</ele>
        <time>2019-10-26T13:22:43Z</time>
      </trkpt>
      <trkpt lat="44.25135" lon="3.96021">
        <ele>302.998</ele>
        <time>2019-10-26T13:23:13Z</time>
      </trkpt>
      <trkpt lat="44.2506" lon="3.95901">
        <ele>303.913</ele>
        <time>2019-10-26T13:23:46Z</time>
      </trkpt>
      <trkpt lat="44.25007" lon="3.95819">
        <ele>312.284</ele>
        <time>2019-10-26T13:24:16Z</time>
      </trkpt>
      <trkpt lat="44.25044" lon="3.95664">
        <ele>304.593</ele>
        <time>2019-10-26T13:24:49Z</time>
      </trkpt>
      <trkpt lat="44.25093" lon="3.95424">
        <ele>302.277</ele>
        <time>2019-10-26T13:25:19Z</time>
      </trkpt>
      <trkpt lat="44.25065" lon="3.95302">
        <ele>301.59</ele>
        <time>2019-10-26T13:25:52Z</time>
      </trkpt>
      <trkpt lat="44.25026" lon="3.95252">
        <ele>305.321</ele>
        <time>2019-10-26T13:39:43Z</time>
      </trkpt>
      <trkpt lat="44.2499" lon="3.95216">
        <ele>301.058</ele>
        <time>2019-10-26T13:40:16Z</time>
      </trkpt>
      <trkpt lat="44.24974" lon="3.95131">
        <ele>306.45</ele>
        <time>2019-10-26T13:40:49Z</time>
      </trkpt>
      <trkpt lat="44.24916" lon="3.95092">
        <ele>318.16</ele>
        <time>2019-10-26T13:41:34Z</time>
      </trkpt>
      <trkpt lat="44.24968" lon="3.95063">
        <ele>324.581</ele>
        <time>2019-10-26T13:42:19Z</time>
      </trkpt>
      <trkpt lat="44.25019" lon="3.95068">
        <ele>334.947</ele>
        <time>2019-10-26T13:42:58Z</time>
      </trkpt>
      <trkpt lat="44.24975" lon="3.95019">
        <ele>339.937</ele>
        <time>2019-10-26T13:43:34Z</time>
      </trkpt>
      <trkpt lat="44.24933" lon="3.94959">
        <ele>346.258</ele>
        <time>2019-10-26T13:44:16Z</time>
      </trkpt>
      <trkpt lat="44.24897" lon="3.9489">
        <ele>356.775</ele>
        <time>2019-10-26T13:44:52Z</time>
      </trkpt>
      <trkpt lat="44.24859" lon="3.94831">
        <ele>359.887</ele>
        <time>2019-10-26T13:45:28Z</time>
      </trkpt>
      <trkpt lat="44.24828" lon="3.94882">
        <ele>359.805</ele>
        <time>2019-10-26T13:46:13Z</time>
      </trkpt>
      <trkpt lat="44.24797" lon="3.94842">
        <ele>356.944</ele>
        <time>2019-10-26T13:46:49Z</time>
      </trkpt>
      <trkpt lat="44.24798" lon="3.9477">
        <ele>360.397</ele>
        <time>2019-10-26T13:47:19Z</time>
      </trkpt>
      <trkpt lat="44.24842" lon="3.94705">
        <ele>373.621</ele>
        <time>2019-10-26T13:48:04Z</time>
      </trkpt>
      <trkpt lat="44.24893" lon="3.94648">
        <ele>389.174</ele>
        <time>2019-10-26T13:48:52Z</time>
      </trkpt>
      <trkpt lat="44.24885" lon="3.94605">
        <ele>384.126</ele>
        <time>2019-10-26T13:49:43Z</time>
      </trkpt>
      <trkpt lat="44.24937" lon="3.94621">
        <ele>392.341</ele>
        <time>2019-10-26T13:50:19Z</time>
      </trkpt>
      <trkpt lat="44.24998" lon="3.94582">
        <ele>409.057</ele>
        <time>2019-10-26T13:51:10Z</time>
      </trkpt>
      <trkpt lat="44.25052" lon="3.94587">
        <ele>422.064</ele>
        <time>2019-10-26T13:51:58Z</time>
      </trkpt>
      <trkpt lat="44.25056" lon="3.9467">
        <ele>411.234</ele>
        <time>2019-10-26T13:52:37Z</time>
      </trkpt>
      <trkpt lat="44.25075" lon="3.94742">
        <ele>411.848</ele>
        <time>2019-10-26T13:53:10Z</time>
      </trkpt>
      <trkpt lat="44.25106" lon="3.94795">
        <ele>418.996</ele>
        <time>2019-10-26T13:58:04Z</time>
      </trkpt>
      <trkpt lat="44.2515" lon="3.94746">
        <ele>426.247</ele>
        <time>2019-10-26T13:58:43Z</time>
      </trkpt>
      <trkpt lat="44.25186" lon="3.94662">
        <ele>438.557</ele>
        <time>2019-10-26T13:59:34Z</time>
      </trkpt>
      <trkpt lat="44.25234" lon="3.9462">
        <ele>447.215</ele>
        <time>2019-10-26T14:00:10Z</time>
      </trkpt>
      <trkpt lat="44.25282" lon="3.94648">
        <ele>452.415</ele>
        <time>2019-10-26T14:00:43Z</time>
      </trkpt>
      <trkpt lat="44.2535" lon="3.94646">
        <ele>469.152</ele>
        <time>2019-10-26T14:01:28Z</time>
      </trkpt>
      <trkpt lat="44.25368" lon="3.94703">
        <ele>470.254</ele>
        <time>2019-10-26T14:02:07Z</time>
      </trkpt>
      <trkpt lat="44.25409" lon="3.94773">
        <ele>471.742</ele>
        <time>2019-10-26T14:02:52Z</time>
      </trkpt>
      <trkpt lat="44.25463" lon="3.94807">
        <ele>476.215</ele>
        <time>2019-10-26T14:03:28Z</time>
      </trkpt>
      <trkpt lat="44.25539" lon="3.94846">
        <ele>486.258</ele>
        <time>2019-10-26T14:04:22Z</time>
      </trkpt>
      <trkpt lat="44.25549" lon="3.94802">
        <ele>486.217</ele>
        <time>2019-10-26T14:05:04Z</time>
      </trkpt>
      <trkpt lat="44.2552" lon="3.94725">
        <ele>483.32</ele>
        <time>2019-10-26T14:05:40Z</time>
      </trkpt>
      <trkpt lat="44.25485" lon="3.94645">
        <ele>489.923</ele>
        <time>2019-10-26T14:06:22Z</time>
      </trkpt>
      <trkpt lat="44.25499" lon="3.94567">
        <ele>494.254</ele>
        <time>2019-10-26T14:07:04Z</time>
      </trkpt>
      <trkpt lat="44.25515" lon="3.94502">
        <ele>499.795</ele>
        <time>2019-10-26T14:07:37Z</time>
      </trkpt>
      <trkpt lat="44.25494" lon="3.9443">
        <ele>508.045</ele>
        <time>2019-10-26T14:08:22Z</time>
      </trkpt>
      <trkpt lat="44.25475" lon="3.94351">
        <ele>516.766</ele>
        <time>2019-10-26T14:09:01Z</time>
      </trkpt>
      <trkpt lat="44.25465" lon="3.94279">
        <ele>518.866</ele>
        <time>2019-10-26T14:09:34Z</time>
      </trkpt>
      <trkpt lat="44.25424" lon="3.94193">
        <ele>522.784</ele>
        <time>2019-10-26T14:10:25Z</time>
      </trkpt>
      <trkpt lat="44.25384" lon="3.9413">
        <ele>532.531</ele>
        <time>2019-10-26T14:11:07Z</time>
      </trkpt>
      <trkpt lat="44.2539" lon="3.94068">
        <ele>535.78</ele>
        <time>2019-10-26T14:17:13Z</time>
      </trkpt>
      <trkpt lat="44.25435" lon="3.94113">
        <ele>544.811</ele>
        <time>2019-10-26T14:17:52Z</time>
      </trkpt>
      <trkpt lat="44.25491" lon="3.94139">
        <ele>544.067</ele>
        <time>2019-10-26T14:18:25Z</time>
      </trkpt>
      <trkpt lat="44.25541" lon="3.94172">
        <ele>550.578</ele>
        <time>2019-10-26T14:19:01Z</time>
      </trkpt>
      <trkpt lat="44.25516" lon="3.94083">
        <ele>547.89</ele>
        <time>2019-10-26T14:19:46Z</time>
      </trkpt>
      <trkpt lat="44.25567" lon="3.94138">
        <ele>559.548</ele>
        <time>2019-10-26T14:20:31Z</time>
      </trkpt>
      <trkpt lat="44.25623" lon="3.94167">
        <ele>570.226</ele>
        <time>2019-10-26T14:21:10Z</time>
      </trkpt>
      <trkpt lat="44.25671" lon="3.94223">
        <ele>578.831</ele>
        <time>2019-10-26T14:21:49Z</time>
      </trkpt>
      <trkpt lat="44.25722" lon="3.94267">
        <ele>578.557</ele>
        <time>2019-10-26T14:22:22Z</time>
      </trkpt>
      <trkpt lat="44.25778" lon="3.94306">
        <ele>584.008</ele>
        <time>2019-10-26T14:23:04Z</time>
      </trkpt>
      <trkpt lat="44.25836" lon="3.94347">
        <ele>586.547</ele>
        <time>2019-10-26T14:23:46Z</time>
      </trkpt>
      <trkpt lat="44.25896" lon="3.94395">
        <ele>592.197</ele>
        <time>2019-10-26T14:24:31Z</time>
      </trkpt>
      <trkpt lat="44.25945" lon="3.94368">
        <ele>601.196</ele>
        <time>2019-10-26T14:25:10Z</time>
      </trkpt>
      <trkpt lat="44.26006" lon="3.94318">
        <ele>611.908</ele>
        <time>2019-10-26T14:25:58Z</time>
      </trkpt>
      <trkpt lat="44.26058" lon="3.94299">
        <ele>614.646</ele>
        <time>2019-10-26T14:26:31Z</time>
      </trkpt>
      <trkpt lat="44.26132" lon="3.94292">
        <ele>626.481</ele>
        <time>2019-10-26T14:27:22Z</time>
      </trkpt>
      <trkpt lat="44.26194" lon="3.94271">
        <ele>628.041</ele>
        <time>2019-10-26T14:28:13Z</time>
      </trkpt>
      <trkpt lat="44.26284" lon="3.94269">
        <ele>620.247</ele>
        <time>2019-10-26T14:30:49Z</time>
      </trkpt>
      <trkpt lat="44.26475" lon="3.94218">
        <ele>603.257</ele>
        <time>2019-10-26T14:31:22Z</time>
      </trkpt>
      <trkpt lat="44.26552" lon="3.94049">
        <ele>582.922</ele>
        <time>2019-10-26T14:31:52Z</time>
      </trkpt>
      <trkpt lat="44.26479" lon="3.93874">
        <ele>575.372</ele>
        <time>2019-10-26T14:32:25Z</time>
      </trkpt>
      <trkpt lat="44.26492" lon="3.93807">
        <ele>570.649</ele>
        <time>2019-10-26T14:33:37Z</time>
      </trkpt>
      <trkpt lat="44.26435" lon="3.93789">
        <ele>560.968</ele>
        <time>2019-10-26T14:35:04Z</time>
      </trkpt>
    </trkseg>
  </trk>
</gpx>